Time;durP1;ratioP1;P1;durP2;ratioP2;P2;SDS_P1;SDS_P2;PMS_P1;PMS_P2;Temp;Humidity;BMP_temperature;BMP_pressure;BME280_temperature;BME280_humidity;BME280_pressure;Samples;Min_cycle;Max_cycle;Signal;HPM_P1;HPM_P2
2021/07/30 00:00:10;;;;;;;4.00;3.67;;;;;;;17.09;81.98;95253.88;5066813;28;20640;-73
2021/07/30 00:02:37;;;;;;;3.93;3.70;;;;;;;16.78;81.41;95256.69;5048893;28;20280;-73
2021/07/30 00:05:08;;;;;;;3.87;3.60;;;;;;;16.83;80.99;95258.69;5055481;28;20304;-73
2021/07/30 00:07:36;;;;;;;4.10;3.63;;;;;;;16.74;81.15;95255.56;5070325;28;20223;-73
2021/07/30 00:10:05;;;;;;;4.63;4.33;;;;;;;16.81;81.56;95249.28;5059473;28;20226;-71
2021/07/30 00:12:33;;;;;;;3.73;3.00;;;;;;;16.76;81.66;95258.78;5056727;28;20259;-72
2021/07/30 00:15:01;;;;;;;4.50;4.20;;;;;;;16.66;81.93;95258.53;5042122;28;20241;-72
2021/07/30 00:17:30;;;;;;;3.70;3.50;;;;;;;16.66;81.77;95265.72;5057754;28;20223;-72
2021/07/30 00:19:59;;;;;;;4.23;3.93;;;;;;;16.65;81.89;95256.91;5043410;28;20234;-71
2021/07/30 00:22:27;;;;;;;5.17;4.77;;;;;;;16.64;82.41;95257.13;5041856;28;20635;-70
2021/07/30 00:24:55;;;;;;;5.00;4.70;;;;;;;16.66;82.05;95253.22;5063842;28;20279;-72
2021/07/30 00:27:23;;;;;;;4.20;3.90;;;;;;;16.64;82.08;95247.31;5040464;28;20237;-72
2021/07/30 00:29:51;;;;;;;4.77;4.47;;;;;;;16.75;81.69;95254.50;5047574;28;20221;-72
2021/07/30 00:32:20;;;;;;;4.40;4.00;;;;;;;16.80;81.62;95253.00;5044062;28;20226;-72
2021/07/30 00:34:49;;;;;;;3.67;3.47;;;;;;;16.80;81.68;95253.00;5054893;28;20245;-72
2021/07/30 00:37:17;;;;;;;5.20;4.80;;;;;;;16.79;81.98;95252.19;5051499;28;20249;-72
2021/07/30 00:39:46;;;;;;;4.57;4.27;;;;;;;16.77;82.47;95255.09;5059497;28;20218;-72
2021/07/30 00:42:13;;;;;;;4.73;4.43;;;;;;;16.73;82.60;95253.09;5060681;28;20322;-71
2021/07/30 00:44:42;;;;;;;4.43;4.13;;;;;;;16.71;82.49;95241.88;5066559;28;20655;-72
2021/07/30 00:47:11;;;;;;;4.93;4.63;;;;;;;16.65;82.02;95243.59;5045510;28;20516;-71
2021/07/30 00:49:39;;;;;;;6.53;4.00;;;;;;;16.50;82.20;95248.56;5063284;28;20242;-71
2021/07/30 00:52:12;;;;;;;4.73;4.33;;;;;;;16.52;81.97;95251.00;5057138;28;20227;-71
2021/07/30 00:54:39;;;;;;;4.30;4.00;;;;;;;16.54;82.21;95251.56;5067451;28;20249;-71
2021/07/30 00:57:08;;;;;;;3.90;3.67;;;;;;;16.57;81.98;95248.47;5076213;28;20786;-72
2021/07/30 00:59:38;;;;;;;4.70;4.40;;;;;;;16.47;82.10;95254.34;5078448;28;20621;-72
2021/07/30 01:02:07;;;;;;;5.27;4.97;;;;;;;16.42;82.07;95256.88;5058161;28;20703;-72
2021/07/30 01:04:35;;;;;;;5.03;4.63;;;;;;;16.21;83.08;95244.94;5073580;28;20213;-71
2021/07/30 01:07:04;;;;;;;4.73;4.43;;;;;;;16.27;83.02;95254.66;5066950;28;20221;-71
2021/07/30 01:09:33;;;;;;;4.10;3.37;;;;;;;16.30;83.01;95248.09;5073217;28;20278;-72
2021/07/30 01:12:02;;;;;;;5.50;5.10;;;;;;;16.30;83.30;95246.22;5048710;28;20281;-71
2021/07/30 01:14:30;;;;;;;5.20;4.90;;;;;;;16.28;83.68;95240.31;5061781;28;20222;-71
2021/07/30 01:16:58;;;;;;;4.93;4.53;;;;;;;16.22;83.63;95241.22;5059071;28;20231;-72
2021/07/30 01:19:27;;;;;;;6.83;6.23;;;;;;;16.17;84.02;95254.41;5058497;28;20218;-72
2021/07/30 01:21:56;;;;;;;4.80;4.50;;;;;;;16.21;83.70;95251.06;5048100;28;20319;-72
2021/07/30 01:24:29;;;;;;;4.53;4.23;;;;;;;16.26;83.35;95254.88;5033807;28;20222;-72
2021/07/30 01:26:58;;;;;;;7.73;4.90;;;;;;;16.20;84.01;95249.44;5062190;28;20248;-72
2021/07/30 01:29:29;;;;;;;5.87;4.70;;;;;;;16.24;83.85;95252.47;5072086;28;20213;-72
2021/07/30 01:31:57;;;;;;;4.90;4.60;;;;;;;16.32;83.07;95256.66;5042038;28;20714;-72
2021/07/30 01:34:25;;;;;;;4.40;4.10;;;;;;;16.28;83.04;95268.81;5050517;28;20244;-72
2021/07/30 01:36:53;;;;;;;5.00;4.70;;;;;;;16.08;83.48;95267.22;5072206;28;20225;-72
2021/07/30 01:39:21;;;;;;;5.10;4.77;;;;;;;15.96;84.39;95258.41;5052132;28;20222;-72
2021/07/30 01:41:51;;;;;;;7.20;6.40;;;;;;;15.75;84.97;95262.41;5081079;28;20229;-73
2021/07/30 01:44:19;;;;;;;5.50;5.00;;;;;;;15.79;83.85;95268.88;5076870;28;20247;-71
2021/07/30 01:46:47;;;;;;;6.97;5.20;;;;;;;15.68;83.97;95271.50;5068392;28;20221;-71
2021/07/30 01:49:15;;;;;;;4.80;4.47;;;;;;;15.57;84.94;95271.19;5061098;28;20626;-72
2021/07/30 01:51:44;;;;;;;6.17;5.67;;;;;;;15.48;85.46;95272.53;5060651;28;20591;-71
2021/07/30 01:54:14;;;;;;;6.03;5.60;;;;;;;15.45;85.92;95272.97;5062635;28;20222;-71
2021/07/30 01:56:43;;;;;;;6.47;5.90;;;;;;;15.44;86.82;95275.84;5058881;28;20233;-72
2021/07/30 01:59:12;;;;;;;5.43;5.03;;;;;;;15.55;86.44;95278.59;5036268;28;20211;-72
2021/07/30 02:01:41;;;;;;;4.87;4.57;;;;;;;15.62;86.01;95284.66;5077795;28;20238;-71
2021/07/30 02:04:10;;;;;;;4.30;4.03;;;;;;;15.79;85.02;95284.03;5027327;28;20211;-72
2021/07/30 02:06:38;;;;;;;6.30;5.00;;;;;;;15.71;85.28;95287.81;5047279;28;20232;-72
2021/07/30 02:09:06;;;;;;;5.00;4.50;;;;;;;15.66;85.50;95290.34;5067767;28;20249;-72
2021/07/30 02:11:33;;;;;;;4.90;4.57;;;;;;;15.62;85.56;95287.31;5058552;28;20575;-72
2021/07/30 02:14:16;;;;;;;4.97;4.57;;;;;;;15.69;85.09;95283.75;5058685;28;20226;-71
2021/07/30 02:16:47;;;;;;;4.67;4.37;;;;;;;15.74;84.86;95292.69;5051715;28;20703;-71
2021/07/30 02:19:17;;;;;;;4.97;4.57;;;;;;;15.80;84.56;95291.78;5058320;28;20229;-71
2021/07/30 02:21:47;;;;;;;5.33;4.70;;;;;;;15.74;84.48;95286.56;5048553;28;20222;-71
2021/07/30 02:24:15;;;;;;;4.00;3.70;;;;;;;15.69;84.73;95289.88;5054914;28;20702;-72
2021/07/30 02:26:43;;;;;;;4.27;4.07;;;;;;;15.68;84.76;95292.78;5050499;28;20280;-73
2021/07/30 02:29:11;;;;;;;5.10;4.70;;;;;;;15.67;84.87;95284.00;5064497;28;20225;-72
2021/07/30 02:31:40;;;;;;;4.43;4.00;;;;;;;15.64;84.78;95282.59;5050756;28;20230;-72
2021/07/30 02:34:10;;;;;;;3.40;3.20;;;;;;;15.67;84.74;95289.31;5055451;28;20218;-72
2021/07/30 02:36:42;;;;;;;4.20;3.93;;;;;;;15.71;84.82;95284.34;5051674;28;20231;-71
2021/07/30 02:39:11;;;;;;;4.37;3.97;;;;;;;15.72;84.69;95291.28;5056507;28;20269;-72
2021/07/30 02:41:39;;;;;;;4.23;3.93;;;;;;;15.73;84.63;95282.28;5057039;28;20230;-73
2021/07/30 02:44:08;;;;;;;7.00;5.10;;;;;;;15.76;84.48;95287.97;5070986;28;20234;-73
2021/07/30 02:46:36;;;;;;;4.83;4.53;;;;;;;15.79;84.19;95284.03;5059711;28;20277;-72
2021/07/30 02:49:04;;;;;;;5.23;4.93;;;;;;;15.76;83.82;95289.81;5028368;28;20229;-72
2021/07/30 02:51:34;;;;;;;4.00;3.60;;;;;;;15.75;84.03;95294.31;5053466;28;20309;-72
2021/07/30 02:54:03;;;;;;;3.63;3.33;;;;;;;15.74;83.95;95291.88;5054810;28;20246;-72
2021/07/30 02:56:31;;;;;;;5.10;4.60;;;;;;;15.73;84.04;95292.94;5051993;28;20260;-72
2021/07/30 02:58:59;;;;;;;3.47;3.27;;;;;;;15.74;84.12;95298.03;5035980;28;20235;-72
2021/07/30 03:01:27;;;;;;;3.97;3.77;;;;;;;15.76;84.25;95292.47;5063910;28;20318;-72
2021/07/30 03:03:55;;;;;;;2.50;2.37;;;;;;;15.77;83.75;95291.44;5042550;28;20290;-72
2021/07/30 03:06:23;;;;;;;3.97;2.63;;;;;;;15.75;83.56;95288.19;5036862;28;20279;-72
2021/07/30 03:08:53;;;;;;;3.10;2.90;;;;;;;15.73;83.61;95295.59;5041087;28;20344;-72
2021/07/30 03:11:21;;;;;;;3.57;3.37;;;;;;;15.74;83.92;95297.22;5045020;28;20708;-72
2021/07/30 03:13:49;;;;;;;3.53;3.33;;;;;;;15.74;83.92;95286.56;5038332;28;20211;-71
2021/07/30 03:16:18;;;;;;;3.47;3.27;;;;;;;15.78;84.07;95293.06;5065785;28;20217;-72
2021/07/30 03:18:46;;;;;;;4.13;3.83;;;;;;;15.85;83.62;95283.13;5046247;28;20686;-72
2021/07/30 03:21:14;;;;;;;3.73;3.53;;;;;;;15.89;83.91;95284.28;5057358;28;20304;-72
2021/07/30 03:23:43;;;;;;;3.97;3.67;;;;;;;15.91;83.77;95283.06;5065762;28;20231;-72
2021/07/30 03:26:12;;;;;;;10.97;4.27;;;;;;;16.00;83.87;95270.25;5059542;28;20225;-67
2021/07/30 03:28:40;;;;;;;5.83;5.37;;;;;;;16.11;83.18;95273.97;5064401;28;20310;-68
2021/07/30 03:31:08;;;;;;;5.47;4.93;;;;;;;16.14;82.86;95276.97;5056423;28;20249;-67
2021/07/30 03:33:36;;;;;;;4.10;3.80;;;;;;;16.14;82.67;95273.50;5045303;28;20648;-67
2021/07/30 03:36:05;;;;;;;4.80;4.50;;;;;;;16.16;82.75;95258.91;5057731;28;20222;-66
2021/07/30 03:38:33;;;;;;;4.73;4.43;;;;;;;16.20;82.92;95265.44;5070790;28;20250;-67
2021/07/30 03:41:03;;;;;;;7.13;4.60;;;;;;;16.26;82.62;95252.22;5052877;28;20280;-67
2021/07/30 03:43:33;;;;;;;6.80;4.30;;;;;;;16.36;81.86;95255.13;5065406;28;20292;-67
2021/07/30 03:46:01;;;;;;;8.73;5.83;;;;;;;16.39;81.56;95257.34;5061396;28;20713;-67
2021/07/30 03:48:29;;;;;;;4.83;4.53;;;;;;;16.28;81.67;95250.16;5044612;28;20236;-67
2021/07/30 03:50:58;;;;;;;5.10;4.67;;;;;;;16.22;81.84;95246.56;5055748;28;20240;-67
2021/07/30 03:53:26;;;;;;;16.60;5.30;;;;;;;16.27;81.84;95253.84;5042864;28;20227;-67
2021/07/30 03:55:54;;;;;;;5.17;4.80;;;;;;;16.28;81.73;95250.97;5053910;28;20644;-67
2021/07/30 03:58:22;;;;;;;4.70;4.30;;;;;;;16.31;81.85;95255.03;5065513;28;20223;-67
2021/07/30 04:00:52;;;;;;;5.00;4.40;;;;;;;16.26;81.08;95253.03;5062979;28;20351;-67
2021/07/30 04:03:20;;;;;;;4.27;3.97;;;;;;;16.11;80.72;95263.31;5061687;28;20548;-67
2021/07/30 04:05:49;;;;;;;4.20;4.00;;;;;;;15.91;80.43;95268.94;5068075;28;20228;-67
2021/07/30 04:08:16;;;;;;;6.73;3.87;;;;;;;15.79;80.51;95262.75;5052968;28;20630;-67
2021/07/30 04:10:45;;;;;;;6.17;5.53;;;;;;;15.68;80.79;95276.81;5066018;28;20346;-68
2021/07/30 04:13:12;;;;;;;6.13;5.50;;;;;;;15.34;81.62;95279.03;5060045;28;20654;-68
2021/07/30 04:15:41;;;;;;;7.03;4.93;;;;;;;15.17;82.63;95275.34;5068190;28;20341;-68
2021/07/30 04:18:10;;;;;;;14.77;5.97;;;;;;;15.08;83.20;95283.59;5052736;28;20689;-68
2021/07/30 04:20:39;;;;;;;7.93;4.63;;;;;;;15.15;83.51;95277.41;5029897;28;20592;-68
2021/07/30 04:23:07;;;;;;;5.77;4.47;;;;;;;15.26;83.24;95271.34;5036839;28;20277;-68
2021/07/30 04:25:40;;;;;;;5.00;4.53;;;;;;;15.38;82.88;95266.94;5041947;28;20230;-66
2021/07/30 04:28:08;;;;;;;4.83;4.37;;;;;;;15.41;83.24;95277.13;5055915;28;20234;-68
2021/07/30 04:30:36;;;;;;;4.97;4.37;;;;;;;15.47;82.65;95275.41;5057981;28;20218;-66
2021/07/30 04:33:04;;;;;;;4.67;4.13;;;;;;;15.55;82.37;95275.94;5056044;28;20226;-68
2021/07/30 04:35:36;;;;;;;7.53;4.77;;;;;;;15.52;82.97;95273.69;5061652;28;20215;-68
2021/07/30 04:38:04;;;;;;;29.80;5.90;;;;;;;15.53;83.30;95274.50;5054686;28;20309;-69
2021/07/30 04:40:32;;;;;;;7.20;4.73;;;;;;;15.68;82.96;95279.47;5074179;28;20222;-68
2021/07/30 04:43:01;;;;;;;5.17;4.73;;;;;;;15.87;82.29;95275.75;5045906;28;20246;-68
2021/07/30 04:45:29;;;;;;;4.67;4.37;;;;;;;15.99;82.12;95267.78;5048456;28;20213;-68
2021/07/30 04:47:57;;;;;;;4.00;3.70;;;;;;;16.15;82.22;95273.28;5047252;28;20231;-68
2021/07/30 04:50:26;;;;;;;4.70;4.13;;;;;;;16.12;82.63;95273.75;5064637;28;20214;-68
2021/07/30 04:52:56;;;;;;;5.40;4.93;;;;;;;16.09;82.83;95273.38;5052174;28;20269;-68
2021/07/30 04:55:25;;;;;;;5.07;4.57;;;;;;;16.19;82.97;95274.47;5055714;28;20670;-68
2021/07/30 04:57:53;;;;;;;5.13;4.80;;;;;;;16.31;82.80;95276.31;5058945;28;20464;-68
2021/07/30 05:00:22;;;;;;;8.80;6.57;;;;;;;16.46;82.53;95260.72;5047266;28;20221;-69
2021/07/30 05:02:53;;;;;;;4.93;4.63;;;;;;;16.54;82.28;95263.03;5059143;28;20218;-68
2021/07/30 05:05:22;;;;;;;5.43;5.03;;;;;;;16.49;82.66;95268.25;5067005;28;20217;-68
2021/07/30 05:07:50;;;;;;;20.17;5.47;;;;;;;16.64;82.12;95268.63;5069396;28;20709;-68
2021/07/30 05:10:19;;;;;;;5.10;3.77;;;;;;;16.69;82.00;95267.94;5051935;28;20707;-68
2021/07/30 05:12:48;;;;;;;5.27;4.63;;;;;;;16.75;81.69;95278.50;5060386;28;20267;-68
2021/07/30 05:15:15;;;;;;;5.13;4.73;;;;;;;16.87;81.97;95269.69;5058057;28;20218;-68
2021/07/30 05:17:44;;;;;;;5.53;4.13;;;;;;;16.91;81.71;95265.50;5064604;28;20257;-68
2021/07/30 05:20:12;;;;;;;6.03;5.53;;;;;;;17.09;81.32;95273.38;5069617;28;20225;-68
2021/07/30 05:22:41;;;;;;;7.00;3.83;;;;;;;17.24;80.96;95271.03;5047326;28;20214;-68
2021/07/30 05:25:11;;;;;;;4.33;4.03;;;;;;;17.32;80.84;95270.66;5062927;28;20222;-68
2021/07/30 05:27:40;;;;;;;8.07;6.03;;;;;;;17.36;81.49;95268.34;5066681;28;20233;-69
2021/07/30 05:30:09;;;;;;;5.90;5.10;;;;;;;17.21;82.77;95255.50;5072049;28;20718;-69
2021/07/30 05:32:36;;;;;;;9.80;5.67;;;;;;;17.47;82.16;95258.72;5056008;28;20229;-69
2021/07/30 05:35:05;;;;;;;4.57;4.13;;;;;;;17.59;82.33;95256.81;5044907;28;20451;-69
2021/07/30 05:37:33;;;;;;;6.90;5.60;;;;;;;17.75;82.35;95261.41;5062095;28;20226;-69
2021/07/30 05:40:01;;;;;;;5.33;4.93;;;;;;;17.87;82.03;95248.81;5056913;28;20244;-69
2021/07/30 05:42:28;;;;;;;6.27;5.87;;;;;;;18.09;81.10;95250.81;5066784;28;20591;-69
2021/07/30 05:44:59;;;;;;;6.10;5.57;;;;;;;18.15;80.70;95256.00;5065802;28;20593;-69
2021/07/30 05:47:27;;;;;;;5.47;5.13;;;;;;;18.31;80.39;95259.75;5075323;28;20222;-68
2021/07/30 05:49:55;;;;;;;6.37;5.73;;;;;;;18.52;80.08;95260.06;5047701;28;20250;-69
2021/07/30 05:52:23;;;;;;;5.47;4.90;;;;;;;18.60;79.87;95262.34;5058024;28;20264;-69
2021/07/30 05:54:51;;;;;;;5.43;5.07;;;;;;;18.67;79.91;95263.03;5061482;28;20222;-68
2021/07/30 05:57:19;;;;;;;7.30;6.23;;;;;;;18.78;79.51;95264.78;5051768;28;20213;-69
2021/07/30 05:59:48;;;;;;;6.10;5.50;;;;;;;18.90;78.83;95260.16;5076349;28;20237;-68
2021/07/30 06:02:17;;;;;;;6.33;5.70;;;;;;;19.07;78.49;95262.00;5038334;28;20222;-70
2021/07/30 06:04:46;;;;;;;5.93;5.43;;;;;;;19.18;77.98;95258.41;5046964;28;20219;-68
2021/07/30 06:07:14;;;;;;;19.50;6.77;;;;;;;19.20;77.95;95256.28;5057622;28;20242;-69
2021/07/30 06:09:42;;;;;;;5.40;5.00;;;;;;;19.23;78.19;95263.81;5077727;28;20224;-69
2021/07/30 06:12:10;;;;;;;5.03;4.63;;;;;;;19.39;78.08;95264.84;5057577;28;20261;-69
2021/07/30 06:14:38;;;;;;;5.43;5.13;;;;;;;19.58;77.48;95264.31;5054113;28;20225;-69
2021/07/30 06:17:06;;;;;;;5.70;5.30;;;;;;;19.69;77.58;95267.09;5078175;28;20227;-70
2021/07/30 06:19:36;;;;;;;7.27;6.57;;;;;;;19.70;77.49;95271.38;5072278;28;20229;-69
2021/07/30 06:22:04;;;;;;;7.47;6.97;;;;;;;19.69;77.57;95270.59;5067464;28;20249;-69
2021/07/30 06:24:32;;;;;;;8.30;6.17;;;;;;;19.94;76.61;95275.41;5063493;28;20291;-69
2021/07/30 06:27:01;;;;;;;9.33;8.57;;;;;;;20.06;76.93;95265.34;5047996;28;20222;-69
2021/07/30 06:29:29;;;;;;;6.27;5.77;;;;;;;20.35;76.46;95262.41;5071629;28;20213;-69
2021/07/30 06:31:57;;;;;;;6.27;5.77;;;;;;;20.33;76.22;95268.03;5065877;28;20222;-70
2021/07/30 06:34:25;;;;;;;6.77;5.17;;;;;;;20.57;76.12;95255.09;5049276;28;20300;-69
2021/07/30 06:36:58;;;;;;;5.53;5.07;;;;;;;20.77;75.78;95259.84;5069843;28;20229;-70
2021/07/30 06:39:26;;;;;;;5.00;4.70;;;;;;;20.83;72.15;95263.34;5044855;28;20246;-70
2021/07/30 06:41:55;;;;;;;5.97;5.37;;;;;;;21.01;71.32;95254.88;5045153;28;20226;-71
2021/07/30 06:44:23;;;;;;;9.17;6.47;;;;;;;21.25;73.70;95249.94;5056264;28;20213;-70
2021/07/30 06:46:51;;;;;;;6.67;6.17;;;;;;;21.49;73.39;95258.41;5067628;28;20217;-69
2021/07/30 06:49:20;;;;;;;5.13;4.73;;;;;;;21.55;72.89;95249.28;5056642;28;20694;-70
2021/07/30 06:51:48;;;;;;;5.40;5.07;;;;;;;21.79;69.54;95244.28;5048450;28;20716;-70
2021/07/30 06:54:17;;;;;;;6.77;6.27;;;;;;;21.79;68.85;95255.84;5062466;28;20250;-70
2021/07/30 06:56:46;;;;;;;6.60;6.20;;;;;;;21.86;68.30;95251.03;5078248;28;20219;-68
2021/07/30 06:59:14;;;;;;;8.43;5.87;;;;;;;22.07;68.27;95253.78;5072251;28;20238;-70
2021/07/30 07:01:50;;;;;;;5.63;5.20;;;;;;;22.22;68.67;95263.75;5051471;28;20601;-70
2021/07/30 07:04:19;;;;;;;6.20;5.77;;;;;;;22.22;69.17;95255.69;5040251;28;20652;-70
2021/07/30 07:06:48;;;;;;;7.07;6.57;;;;;;;22.36;68.98;95259.47;5041137;28;20227;-70
2021/07/30 07:09:16;;;;;;;6.93;6.40;;;;;;;22.49;68.40;95258.13;5044992;28;20231;-70
2021/07/30 07:11:44;;;;;;;8.30;6.87;;;;;;;22.50;68.39;95265.94;5023108;28;20806;-71
2021/07/30 07:14:13;;;;;;;6.77;6.13;;;;;;;22.65;67.79;95263.25;5043862;28;20317;-71
2021/07/30 07:16:42;;;;;;;6.77;6.37;;;;;;;22.63;67.13;95259.22;5032079;28;20238;-71
2021/07/30 07:19:11;;;;;;;6.43;5.87;;;;;;;22.77;66.98;95263.00;5039005;28;20273;-70
2021/07/30 07:21:40;;;;;;;9.53;8.27;;;;;;;22.76;66.88;95258.66;5030997;28;20285;-70
2021/07/30 07:24:08;;;;;;;10.83;7.77;;;;;;;22.81;65.91;95245.22;5048025;28;20421;-71
2021/07/30 07:26:38;;;;;;;7.87;7.20;;;;;;;23.02;66.45;95245.22;5051194;28;20223;-71
2021/07/30 07:29:07;;;;;;;9.47;8.67;;;;;;;22.96;65.75;95242.56;5049558;28;20229;-71
2021/07/30 07:31:35;;;;;;;6.80;6.40;;;;;;;23.26;66.38;95235.47;5040507;28;20223;-70
2021/07/30 07:34:04;;;;;;;6.63;6.23;;;;;;;23.46;65.90;95240.78;5039052;28;20227;-71
2021/07/30 07:36:34;;;;;;;6.87;6.37;;;;;;;23.60;65.40;95245.63;5034065;28;20607;-70
2021/07/30 07:39:02;;;;;;;7.13;6.10;;;;;;;23.77;66.48;95235.28;5046784;28;20309;-70
2021/07/30 07:41:30;;;;;;;7.03;6.53;;;;;;;23.97;66.44;95239.78;5038506;28;20263;-71
2021/07/30 07:43:58;;;;;;;6.47;6.07;;;;;;;24.19;66.49;95234.00;5035663;28;20313;-70
2021/07/30 07:46:27;;;;;;;6.93;6.43;;;;;;;24.25;65.24;95241.78;5036795;28;20250;-71
2021/07/30 07:48:55;;;;;;;7.70;7.00;;;;;;;24.29;64.33;95237.41;5038665;28;20230;-71
2021/07/30 07:51:23;;;;;;;6.50;6.00;;;;;;;24.51;65.06;95233.53;5033974;28;20246;-70
2021/07/30 07:53:53;;;;;;;5.13;4.73;;;;;;;24.77;64.84;95229.50;5049537;28;20315;-70
2021/07/30 07:56:20;;;;;;;6.67;5.23;;;;;;;24.90;64.56;95230.75;5041051;28;20601;-70
2021/07/30 07:58:49;;;;;;;5.53;5.03;;;;;;;25.00;64.98;95233.34;5045398;28;20223;-70
2021/07/30 08:01:17;;;;;;;7.20;6.70;;;;;;;24.89;64.59;95223.75;5059110;28;20230;-71
2021/07/30 08:03:46;;;;;;;4.43;4.23;;;;;;;25.34;63.87;95229.81;5021831;28;20278;-71
2021/07/30 08:06:18;;;;;;;6.97;6.47;;;;;;;25.44;62.33;95232.38;5027904;28;20223;-71
2021/07/30 08:08:46;;;;;;;5.43;5.03;;;;;;;25.57;62.46;95228.97;5029011;28;20227;-71
2021/07/30 08:11:17;;;;;;;6.53;6.13;;;;;;;25.61;61.58;95219.22;5032165;28;20311;-71
2021/07/30 08:13:45;;;;;;;5.47;4.97;;;;;;;25.88;61.14;95218.63;5024429;28;20755;-71
2021/07/30 08:16:14;;;;;;;6.60;5.43;;;;;;;26.06;60.13;95219.75;5025257;28;20235;-70
2021/07/30 08:18:42;;;;;;;5.20;4.90;;;;;;;26.25;60.06;95217.84;5006845;28;20220;-71
2021/07/30 08:21:10;;;;;;;5.18;4.88;;;;;;;26.23;59.52;95214.59;5027101;28;20232;-71
2021/07/30 08:23:42;;;;;;;6.18;5.78;;;;;;;26.58;59.54;95209.75;5031198;28;20559;-71
2021/07/30 08:26:10;;;;;;;5.05;4.65;;;;;;;26.73;59.77;95209.50;5024577;28;20230;-71
2021/07/30 08:28:40;;;;;;;7.32;6.72;;;;;;;26.77;57.68;95205.09;5027960;28;20227;-71
2021/07/30 08:31:08;;;;;;;6.95;6.47;;;;;;;27.05;58.07;95205.19;5025458;28;20235;-71
2021/07/30 08:33:37;;;;;;;4.45;4.25;;;;;;;27.29;55.29;95196.88;5030376;28;20227;-71
2021/07/30 08:36:08;;;;;;;5.25;4.80;;;;;;;27.54;55.26;95203.72;5025523;28;20225;-71
2021/07/30 08:38:36;;;;;;;5.00;4.70;;;;;;;27.79;56.79;95205.91;5026395;28;20238;-71
2021/07/30 08:41:04;;;;;;;5.78;4.28;;;;;;;28.01;54.59;95192.41;5025649;28;20314;-71
2021/07/30 08:43:35;;;;;;;3.85;3.65;;;;;;;27.63;52.64;95201.91;5036231;28;20226;-71
2021/07/30 08:46:05;;;;;;;4.00;3.80;;;;;;;27.72;52.96;95200.13;5044320;28;20273;-70
2021/07/30 08:48:35;;;;;;;3.47;3.28;;;;;;;27.83;51.92;95193.38;5045094;28;20246;-69
2021/07/30 08:51:06;;;;;;;4.22;3.90;;;;;;;28.08;54.44;95202.06;5027318;28;20239;-69
2021/07/30 08:53:35;;;;;;;6.22;3.88;;;;;;;27.99;49.61;95196.56;5021150;28;20220;-69
2021/07/30 08:56:04;;;;;;;4.47;4.28;;;;;;;28.35;50.05;95196.56;5026692;28;20253;-69
2021/07/30 08:58:33;;;;;;;3.42;3.13;;;;;;;28.41;52.88;95195.31;5030706;28;20220;-68
2021/07/30 09:01:02;;;;;;;4.05;3.75;;;;;;;28.55;52.21;95190.66;5041546;28;20302;-69
2021/07/30 09:03:39;;;;;;;8.90;4.63;;;;;;;28.91;49.43;95187.06;5046370;28;20229;-69
2021/07/30 09:06:11;;;;;;;4.32;3.97;;;;;;;28.72;48.21;95186.44;5030834;28;20222;-69
2021/07/30 09:08:40;;;;;;;3.58;3.42;;;;;;;29.10;51.29;95184.13;5074663;28;20280;-69
2021/07/30 09:11:08;;;;;;;4.45;4.15;;;;;;;28.90;48.36;95188.19;5061702;28;20272;-69
2021/07/30 09:13:41;;;;;;;3.72;3.53;;;;;;;29.29;48.44;95175.72;5066026;28;20249;-69
2021/07/30 09:16:11;;;;;;;3.15;2.95;;;;;;;29.39;47.55;95180.88;5082154;28;20213;-69
2021/07/30 09:18:42;;;;;;;4.07;3.88;;;;;;;28.42;47.61;95180.63;5076236;28;20735;-69
2021/07/30 09:21:19;;;;;;;3.33;3.13;;;;;;;28.26;49.11;95185.63;5059248;28;20276;-69
2021/07/30 09:23:49;;;;;;;4.05;3.85;;;;;;;28.06;48.67;95192.28;5058781;28;20249;-68
2021/07/30 09:26:38;;;;;;;3.75;3.55;;;;;;;28.98;46.15;95183.88;5064495;28;20602;-69
2021/07/30 09:29:08;;;;;;;3.03;2.92;;;;;;;29.09;47.40;95175.19;5072534;28;20655;-69
2021/07/30 09:31:39;;;;;;;3.60;3.30;;;;;;;29.97;45.98;95163.44;5078187;28;20700;-69
2021/07/30 09:34:13;;;;;;;3.55;3.35;;;;;;;29.83;46.26;95162.78;5069010;28;20246;-68
2021/07/30 09:36:43;;;;;;;3.58;2.97;;;;;;;30.03;45.42;95157.50;5070955;28;20608;-69
2021/07/30 09:39:17;;;;;;;3.60;3.40;;;;;;;30.55;42.96;95145.84;5059706;28;20846;-69
2021/07/30 09:42:01;;;;;;;2.65;2.53;;;;;;;31.15;44.88;95136.69;5051498;28;20769;-69
2021/07/30 09:44:29;;;;;;;5.13;3.38;;;;;;;31.54;42.62;95143.75;5070229;28;20241;-69
2021/07/30 09:47:03;;;;;;;5.13;4.82;;;;;;;31.89;44.41;95130.72;5085465;28;20660;-70
2021/07/30 09:49:47;;;;;;;3.60;3.40;;;;;;;32.21;43.81;95133.84;5084916;28;20225;-69
2021/07/30 09:52:17;;;;;;;3.75;3.63;;;;;;;32.49;43.56;95129.44;5060710;28;20230;-69
2021/07/30 09:54:46;;;;;;;3.78;3.47;;;;;;;32.61;41.54;95131.41;5054462;28;20700;-70
2021/07/30 09:57:16;;;;;;;5.07;4.88;;;;;;;32.89;42.11;95126.16;5056943;28;20701;-70
2021/07/30 09:59:46;;;;;;;4.80;4.38;;;;;;;32.83;41.58;95132.97;5072462;28;20270;-69
2021/07/30 10:02:16;;;;;;;3.58;3.38;;;;;;;33.04;40.67;95133.69;5059390;28;20233;-69
2021/07/30 10:04:49;;;;;;;3.88;3.67;;;;;;;32.02;42.22;95122.63;5050764;28;20230;-69
2021/07/30 10:07:19;;;;;;;3.63;3.53;;;;;;;32.51;41.79;95123.63;5063915;28;20229;-69
2021/07/30 10:09:53;;;;;;;4.18;3.97;;;;;;;32.43;41.29;95125.31;5075439;28;20636;-69
2021/07/30 10:12:22;;;;;;;3.95;3.75;;;;;;;32.84;39.07;95117.38;5062633;28;20220;-70
2021/07/30 10:14:51;;;;;;;4.68;4.35;;;;;;;32.87;42.93;95114.75;5073803;28;20297;-69
2021/07/30 10:17:29;;;;;;;5.13;4.82;;;;;;;31.65;44.72;95122.38;5044111;28;20275;-69
2021/07/30 10:20:02;;;;;;;3.42;3.22;;;;;;;31.99;43.28;95105.75;5048447;28;20218;-69
2021/07/30 10:22:39;;;;;;;3.28;3.03;;;;;;;31.89;43.33;95110.81;5058997;28;20590;-69
2021/07/30 10:25:10;;;;;;;3.70;3.50;;;;;;;32.31;44.07;95105.38;5060041;28;20222;-70
2021/07/30 10:27:41;;;;;;;3.75;3.55;;;;;;;32.65;42.41;95112.44;5063517;28;20272;-69
2021/07/30 10:30:12;;;;;;;3.65;3.53;;;;;;;32.78;42.23;95114.03;5073612;28;20249;-69
2021/07/30 10:32:49;;;;;;;4.50;4.30;;;;;;;32.95;41.23;95113.88;5062977;28;20255;-69
2021/07/30 10:35:20;;;;;;;4.20;4.00;;;;;;;33.23;40.67;95105.00;5042922;28;20261;-69
2021/07/30 10:37:49;;;;;;;4.00;3.80;;;;;;;32.92;40.05;95103.63;5044892;28;20223;-69
2021/07/30 10:40:19;;;;;;;4.22;4.03;;;;;;;32.14;44.41;95106.28;5073146;28;20386;-69
2021/07/30 10:43:07;;;;;;;3.92;3.72;;;;;;;32.95;41.25;95099.41;5078320;28;20279;-69
2021/07/30 10:45:35;;;;;;;5.25;4.85;;;;;;;33.34;42.25;95104.19;5071498;28;20244;-69
2021/07/30 10:48:31;;;;;;;4.57;4.28;;;;;;;32.59;42.46;95100.91;5084728;28;20213;-68
2021/07/30 10:51:04;;;;;;;4.70;4.47;;;;;;;33.24;41.01;95098.41;5045727;28;20769;-70
2021/07/30 10:53:43;;;;;;;3.13;2.92;;;;;;;33.26;39.32;95093.38;5056742;28;20218;-69
2021/07/30 10:56:42;;;;;;;3.88;3.67;;;;;;;33.19;40.94;95093.94;5082099;28;20252;-69
2021/07/30 10:59:10;;;;;;;3.92;3.72;;;;;;;32.70;41.17;95095.78;5009608;28;20247;-69
2021/07/30 11:01:58;;;;;;;4.28;4.07;;;;;;;32.87;41.38;95089.38;5070685;28;20247;-69
2021/07/30 11:04:27;;;;;;;5.00;4.80;;;;;;;32.79;42.46;95082.84;5084441;28;20221;-69
2021/07/30 11:06:58;;;;;;;4.78;4.57;;;;;;;32.84;41.04;95079.13;5071459;28;20931;-69
2021/07/30 11:09:27;;;;;;;4.35;4.15;;;;;;;32.54;40.82;95079.25;5062569;28;20221;-69
2021/07/30 11:11:57;;;;;;;4.03;3.75;;;;;;;32.42;40.81;95073.75;5070241;28;20576;-69
2021/07/30 11:14:26;;;;;;;4.18;3.88;;;;;;;32.59;40.76;95067.31;5069872;28;20244;-69
2021/07/30 11:16:56;;;;;;;4.32;4.13;;;;;;;32.93;42.37;95066.16;5057895;28;20225;-70
2021/07/30 11:19:26;;;;;;;3.90;3.60;;;;;;;32.82;43.66;95072.00;5063943;28;20725;-69
2021/07/30 11:21:55;;;;;;;3.80;3.60;;;;;;;32.61;41.92;95070.50;5068429;28;20388;-70
2021/07/30 11:24:25;;;;;;;3.63;3.35;;;;;;;32.53;42.29;95062.06;5068888;28;20222;-69
2021/07/30 11:26:54;;;;;;;4.05;3.85;;;;;;;32.57;44.16;95064.13;5052823;28;20272;-69
2021/07/30 11:29:30;;;;;;;4.13;3.92;;;;;;;33.04;41.56;95059.88;5065149;28;20222;-69
2021/07/30 11:31:59;;;;;;;4.13;3.92;;;;;;;33.30;40.17;95053.28;5056148;28;20281;-70
2021/07/30 11:34:30;;;;;;;4.45;4.20;;;;;;;33.39;41.20;95056.72;5074143;28;20652;-69
2021/07/30 11:36:59;;;;;;;4.47;4.28;;;;;;;32.96;42.41;95049.84;5084478;28;20221;-70
2021/07/30 11:39:33;;;;;;;5.68;5.18;;;;;;;32.67;42.37;95052.78;5083611;28;20221;-69
2021/07/30 11:42:03;;;;;;;5.22;4.82;;;;;;;32.71;41.79;95037.28;5063277;28;20301;-69
2021/07/30 11:44:41;;;;;;;3.90;3.70;;;;;;;32.52;40.94;95040.53;5061991;28;20683;-69